createdAt,value
2019-03-28T00:01:03.997Z,96845.00
2019-03-28T00:03:35.214Z,96841.00
2019-03-28T00:06:06.607Z,96832.00
2019-03-28T00:08:37.935Z,96837.00
2019-03-28T00:11:09.278Z,96835.00
2019-03-28T00:13:43.542Z,96829.00
2019-03-28T00:16:14.843Z,96832.00
2019-03-28T00:18:46.089Z,96831.00
2019-03-28T00:21:17.337Z,96821.00
2019-03-28T00:24:13.299Z,96821.00
2019-03-28T00:26:44.602Z,96829.00
2019-03-28T00:29:17.614Z,96819.00
2019-03-28T00:31:48.895Z,96826.00
2019-03-28T00:34:20.131Z,96822.00
2019-03-28T00:36:51.398Z,96820.00
2019-03-28T00:39:22.624Z,96826.00
2019-03-28T00:41:53.874Z,96822.00
2019-03-28T00:44:26.569Z,96826.00
2019-03-28T00:46:57.802Z,96813.00
2019-03-28T00:49:29.047Z,96820.00
2019-03-28T00:52:00.279Z,96824.00
2019-03-28T00:54:31.539Z,96829.00
2019-03-28T00:57:02.776Z,96824.00
2019-03-28T00:59:34.002Z,96817.00
2019-03-28T01:02:06.562Z,96825.00
2019-03-28T01:04:37.801Z,96826.00
2019-03-28T01:07:09.006Z,96822.00
2019-03-28T01:09:40.222Z,96828.00
2019-03-28T01:12:12.372Z,96831.00
2019-03-28T01:14:43.590Z,96829.00
2019-03-28T01:17:14.883Z,96824.00
2019-03-28T01:19:46.195Z,96815.00
2019-03-28T01:22:17.432Z,96817.00
2019-03-28T01:24:48.673Z,96811.00
2019-03-28T01:27:20.258Z,96815.00
2019-03-28T01:29:51.526Z,96820.00
2019-03-28T01:32:22.747Z,96821.00
2019-03-28T01:34:53.983Z,96818.00
2019-03-28T01:37:25.179Z,96820.00
2019-03-28T01:39:56.405Z,96818.00
2019-03-28T01:42:27.654Z,96819.00
2019-03-28T01:45:00.512Z,96814.00
2019-03-28T01:47:31.758Z,96815.00
2019-03-28T01:50:03.059Z,96810.00
2019-03-28T01:52:34.230Z,96804.00
2019-03-28T01:55:05.926Z,96812.00
2019-03-28T01:57:37.178Z,96804.00
2019-03-28T02:00:10.187Z,96810.00
2019-03-28T02:02:41.415Z,96807.00
2019-03-28T02:05:12.717Z,96813.00
2019-03-28T02:07:43.924Z,96810.00
2019-03-28T02:10:15.355Z,96812.00
2019-03-28T02:12:46.584Z,96808.00
2019-03-28T02:15:18.377Z,96813.00
2019-03-28T02:17:49.602Z,96809.00
2019-03-28T02:20:20.856Z,96809.00
2019-03-28T02:22:52.094Z,96811.00
2019-03-28T02:25:23.324Z,96811.00
2019-03-28T02:27:54.708Z,96812.00
2019-03-28T02:30:34.505Z,96813.00
2019-03-28T02:33:05.741Z,96814.00
2019-03-28T02:35:37.001Z,96806.00
2019-03-28T02:38:08.307Z,96810.00
2019-03-28T02:40:39.521Z,96808.00
2019-03-28T02:43:10.788Z,96806.00
2019-03-28T02:45:42.041Z,96812.00
2019-03-28T02:48:13.302Z,96806.00
2019-03-28T02:50:44.504Z,96810.00
2019-03-28T02:53:15.763Z,96811.00
2019-03-28T02:55:46.986Z,96810.00
2019-03-28T02:58:18.260Z,96811.00
2019-03-28T03:00:49.522Z,96811.00
2019-03-28T03:03:20.770Z,96807.00
2019-03-28T03:05:52.007Z,96817.00
2019-03-28T03:08:24.381Z,96805.00
2019-03-28T03:10:57.680Z,96815.00
2019-03-28T03:13:29.329Z,96812.00
2019-03-28T03:16:02.387Z,96809.00
2019-03-28T03:18:35.951Z,96815.00
2019-03-28T03:21:07.208Z,96807.00
2019-03-28T03:23:38.440Z,96804.00
2019-03-28T03:26:09.753Z,96804.00
2019-03-28T03:28:40.994Z,96797.00
2019-03-28T03:31:12.232Z,96807.00
2019-03-28T03:33:43.476Z,96793.00
2019-03-28T03:36:15.049Z,96806.00
2019-03-28T03:38:46.380Z,96811.00
2019-03-28T03:41:17.934Z,96809.00
2019-03-28T03:43:49.735Z,96804.00
2019-03-28T03:46:21.208Z,96805.00
2019-03-28T03:48:52.443Z,96809.00
2019-03-28T03:51:23.760Z,96813.00
2019-03-28T03:53:55.012Z,96811.00
2019-03-28T03:56:27.543Z,96818.00
2019-03-28T03:58:58.785Z,96819.00
2019-03-28T04:01:32.078Z,96804.00
2019-03-28T04:04:03.303Z,96813.00
2019-03-28T04:06:34.881Z,96816.00
2019-03-28T04:09:07.141Z,96816.00
2019-03-28T04:11:38.413Z,96812.00
2019-03-28T04:14:09.641Z,96815.00
2019-03-28T04:16:41.232Z,96812.00
2019-03-28T04:19:12.952Z,96812.00
2019-03-28T04:21:44.195Z,96812.00
2019-03-28T04:24:15.387Z,96817.00
2019-03-28T04:26:46.997Z,96817.00
2019-03-28T04:29:18.232Z,96811.00
2019-03-28T04:31:49.598Z,96811.00
2019-03-28T04:34:20.849Z,96818.00
2019-03-28T04:36:52.071Z,96822.00
2019-03-28T04:39:23.338Z,96813.00
2019-03-28T04:41:54.585Z,96815.00
2019-03-28T04:44:25.903Z,96810.00
2019-03-28T04:46:57.630Z,96814.00
2019-03-28T04:49:28.868Z,96817.00
2019-03-28T04:52:00.158Z,96817.00
2019-03-28T04:54:31.401Z,96823.00
2019-03-28T04:57:02.616Z,96819.00
2019-03-28T04:59:33.898Z,96820.00
2019-03-28T05:02:05.423Z,96822.00
2019-03-28T05:04:36.726Z,96816.00
2019-03-28T05:07:07.987Z,96809.00
2019-03-28T05:09:39.266Z,96816.00
2019-03-28T05:12:10.521Z,96821.00
2019-03-28T05:14:41.749Z,96826.00
2019-03-28T05:17:13.067Z,96823.00
2019-03-28T05:19:46.970Z,96840.00
2019-03-28T05:22:18.401Z,96827.00
2019-03-28T05:24:51.123Z,96832.00
2019-03-28T05:27:22.367Z,96832.00
2019-03-28T05:29:53.614Z,96838.00
2019-03-28T05:32:24.959Z,96821.00
2019-03-28T05:34:56.375Z,96832.00
2019-03-28T05:37:27.754Z,96830.00
2019-03-28T05:39:59.055Z,96835.00
2019-03-28T05:42:30.473Z,96841.00
2019-03-28T05:45:01.778Z,96834.00
2019-03-28T05:47:33.104Z,96842.00
2019-03-28T05:50:04.619Z,96838.00
2019-03-28T05:52:35.957Z,96839.00
2019-03-28T05:55:07.728Z,96842.00
2019-03-28T05:57:39.491Z,96843.00
2019-03-28T06:00:11.696Z,96846.00
2019-03-28T06:02:42.876Z,96846.00
2019-03-28T06:05:14.167Z,96852.00
2019-03-28T06:07:45.431Z,96847.00
2019-03-28T06:10:16.709Z,96846.00
2019-03-28T06:12:47.943Z,96844.00
2019-03-28T06:15:19.239Z,96849.00
2019-03-28T06:17:52.926Z,96847.00
2019-03-28T06:20:24.313Z,96851.00
2019-03-28T06:22:56.872Z,96849.00
2019-03-28T06:25:28.343Z,96851.00
2019-03-28T06:27:59.622Z,96845.00
2019-03-28T06:30:33.546Z,96855.00
2019-03-28T06:33:04.902Z,96857.00
2019-03-28T06:35:37.632Z,96858.00
2019-03-28T06:38:08.904Z,96856.00
2019-03-28T06:40:41.121Z,96859.00
2019-03-28T06:43:12.398Z,96867.00
2019-03-28T06:45:43.686Z,96858.00
2019-03-28T06:48:15.013Z,96857.00
2019-03-28T06:50:48.766Z,96858.00
2019-03-28T06:53:20.993Z,96859.00
2019-03-28T06:55:52.254Z,96864.00
2019-03-28T06:58:23.500Z,96851.00
2019-03-28T07:00:54.734Z,96851.00
2019-03-28T07:03:25.992Z,96850.00
2019-03-28T07:05:57.302Z,96849.00
2019-03-28T07:08:29.159Z,96851.00
2019-03-28T07:11:00.680Z,96844.00
2019-03-28T07:13:36.447Z,96852.00
2019-03-28T07:16:09.369Z,96845.00
2019-03-28T07:18:40.570Z,96850.00
2019-03-28T07:21:12.156Z,96856.00
2019-03-28T07:23:43.464Z,96852.00
2019-03-28T07:26:14.723Z,96849.00
2019-03-28T07:28:45.986Z,96855.00
2019-03-28T07:31:17.265Z,96854.00
2019-03-28T07:33:48.847Z,96855.00
2019-03-28T07:36:20.147Z,96855.00
2019-03-28T07:38:51.459Z,96855.00
2019-03-28T07:41:22.725Z,96855.00
2019-03-28T07:43:53.972Z,96846.00
2019-03-28T07:46:25.215Z,96846.00
2019-03-28T07:48:56.484Z,96849.00
2019-03-28T07:51:27.987Z,96837.00
2019-03-28T07:53:59.293Z,96837.00
2019-03-28T07:56:30.521Z,96824.00
2019-03-28T07:59:01.865Z,96833.00
2019-03-28T08:01:33.132Z,96838.00
2019-03-28T08:04:04.391Z,96833.00
2019-03-28T08:06:48.777Z,96841.00
2019-03-28T08:09:10.920Z,96836.00
2019-03-28T08:11:42.173Z,96841.00
2019-03-28T08:14:13.465Z,96835.00
2019-03-28T08:16:44.789Z,96844.00
2019-03-28T08:19:16.117Z,96846.00
2019-03-28T08:21:47.364Z,96849.00
2019-03-28T08:24:18.627Z,96862.00
2019-03-28T08:26:49.877Z,96858.00
2019-03-28T08:29:21.670Z,96853.00
2019-03-28T08:31:56.091Z,96857.00
2019-03-28T08:34:31.039Z,96857.00
2019-03-28T08:37:01.458Z,96850.00
2019-03-28T08:39:32.747Z,96854.00
2019-03-28T08:42:04.033Z,96860.00
2019-03-28T08:44:35.270Z,96858.00
2019-03-28T08:47:06.643Z,96853.00
2019-03-28T08:49:37.946Z,96853.00
2019-03-28T08:52:11.745Z,96861.00
2019-03-28T08:54:42.307Z,96856.00
2019-03-28T08:57:13.872Z,96853.00
2019-03-28T08:59:45.195Z,96856.00
2019-03-28T09:02:18.541Z,96853.00
2019-03-28T09:04:49.825Z,96850.00
2019-03-28T09:07:21.057Z,96842.00
2019-03-28T09:09:54.047Z,96844.00
2019-03-28T09:12:25.279Z,96850.00
2019-03-28T09:14:56.560Z,96847.00
2019-03-28T09:17:27.848Z,96852.00
2019-03-28T09:19:59.189Z,96846.00
2019-03-28T09:22:30.752Z,96841.00
2019-03-28T09:25:02.033Z,96836.00
2019-03-28T09:27:33.294Z,96841.00
2019-03-28T09:30:05.940Z,96850.00
2019-03-28T09:32:37.585Z,96855.00
2019-03-28T09:35:09.811Z,96846.00
2019-03-28T09:37:41.543Z,96846.00
2019-03-28T09:40:13.319Z,96844.00
2019-03-28T09:42:44.607Z,96852.00
2019-03-28T09:45:15.870Z,96855.00
2019-03-28T09:47:47.476Z,96852.00
2019-03-28T09:50:18.724Z,96839.00
2019-03-28T09:52:50.345Z,96844.00
2019-03-28T09:55:22.725Z,96830.00
2019-03-28T09:57:53.972Z,96832.00
2019-03-28T10:00:25.224Z,96830.00
2019-03-28T10:02:56.463Z,96828.00
2019-03-28T10:05:27.759Z,96831.00
2019-03-28T10:07:59.058Z,96831.00
2019-03-28T10:10:30.309Z,96814.00
2019-03-28T10:13:01.546Z,96821.00
2019-03-28T10:15:36.890Z,96814.00
2019-03-28T10:18:07.806Z,96824.00
2019-03-28T10:20:39.097Z,96821.00
2019-03-28T10:23:10.398Z,96814.00
2019-03-28T10:25:41.630Z,96808.00
2019-03-28T10:28:13.220Z,96832.00
2019-03-28T10:30:45.804Z,96810.00
2019-03-28T10:33:17.709Z,96813.00
2019-03-28T10:35:49.009Z,96797.00
2019-03-28T10:38:20.287Z,96798.00
2019-03-28T10:40:51.531Z,96792.00
2019-03-28T10:43:22.819Z,96789.00
2019-03-28T10:45:54.708Z,96800.00
2019-03-28T10:48:26.091Z,96802.00
2019-03-28T10:51:00.824Z,96799.00
2019-03-28T10:53:32.485Z,96802.00
2019-03-28T10:56:03.793Z,96807.00
2019-03-28T10:58:38.431Z,96803.00
2019-03-28T11:01:11.416Z,96793.00
2019-03-28T11:03:42.679Z,96802.00
2019-03-28T11:06:13.940Z,96794.00
2019-03-28T11:08:45.245Z,96794.00
2019-03-28T11:11:16.526Z,96806.00
2019-03-28T11:13:48.062Z,96806.00
2019-03-28T11:16:19.317Z,96798.00
2019-03-28T11:18:50.877Z,96805.00
2019-03-28T11:21:24.223Z,96813.00
2019-03-28T11:23:55.452Z,96803.00
2019-03-28T11:26:26.750Z,96800.00
2019-03-28T11:29:00.827Z,96801.00
2019-03-28T11:31:31.029Z,96811.00
2019-03-28T11:34:02.336Z,96805.00
2019-03-28T11:36:33.591Z,96814.00
2019-03-28T11:39:06.628Z,96805.00
2019-03-28T11:41:38.024Z,96806.00
2019-03-28T11:44:09.316Z,96805.00
2019-03-28T11:46:40.902Z,96804.00
2019-03-28T11:49:12.240Z,96799.00
2019-03-28T11:51:43.473Z,96799.00
2019-03-28T11:54:15.084Z,96798.00
2019-03-28T11:56:46.351Z,96800.00
2019-03-28T11:59:17.706Z,96794.00
2019-03-28T12:01:59.382Z,96789.00
2019-03-28T12:04:22.367Z,96788.00
2019-03-28T12:06:53.599Z,96792.00
2019-03-28T12:09:24.907Z,96789.00
2019-03-28T12:11:56.127Z,96787.00
2019-03-28T12:14:27.442Z,96789.00
2019-03-28T12:17:00.170Z,96787.00
2019-03-28T12:19:31.428Z,96785.00
2019-03-28T12:22:02.643Z,96782.00
2019-03-28T12:24:33.948Z,96779.00
2019-03-28T12:27:05.259Z,96778.00
2019-03-28T12:29:36.498Z,96781.00
2019-03-28T12:32:14.336Z,96774.00
2019-03-28T12:34:42.216Z,96768.00
2019-03-28T12:37:13.470Z,96769.00
2019-03-28T12:39:45.128Z,96765.00
2019-03-28T12:42:16.346Z,96762.00
2019-03-28T12:44:56.976Z,96758.00
2019-03-28T12:47:22.592Z,96761.00
2019-03-28T12:49:53.896Z,96775.00
2019-03-28T12:52:25.142Z,96769.00
2019-03-28T12:54:56.964Z,96761.00
2019-03-28T12:57:28.504Z,96772.00
2019-03-28T12:59:59.829Z,96764.00
2019-03-28T13:02:32.058Z,96756.00
2019-03-28T13:05:04.716Z,96760.00
2019-03-28T13:07:36.286Z,96755.00
2019-03-28T13:10:10.752Z,96750.00
2019-03-28T13:12:41.994Z,96766.00
2019-03-28T13:15:13.692Z,96770.00
2019-03-28T13:17:45.040Z,96758.00
2019-03-28T13:20:16.656Z,96761.00
2019-03-28T13:22:47.921Z,96752.00
2019-03-28T13:25:19.137Z,96757.00
2019-03-28T13:27:52.093Z,96759.00
2019-03-28T13:30:23.707Z,96761.00
2019-03-28T13:32:54.951Z,96758.00
2019-03-28T13:35:26.203Z,96761.00
2019-03-28T13:37:57.489Z,96754.00
2019-03-28T13:40:28.698Z,96745.00
2019-03-28T13:42:59.992Z,96754.00
2019-03-28T13:45:31.371Z,96752.00
2019-03-28T13:48:03.108Z,96742.00
2019-03-28T13:50:34.907Z,96745.00
2019-03-28T13:53:06.357Z,96748.00
2019-03-28T13:55:37.607Z,96740.00
2019-03-28T13:58:08.862Z,96749.00
2019-03-28T14:00:40.099Z,96758.00
2019-03-28T14:03:11.377Z,96747.00
2019-03-28T14:05:42.615Z,96745.00
2019-03-28T14:08:14.552Z,96760.00
2019-03-28T14:10:45.952Z,96750.00
2019-03-28T14:13:17.158Z,96750.00
2019-03-28T14:15:48.586Z,96743.00
2019-03-28T14:18:19.817Z,96752.00
2019-03-28T14:20:51.097Z,96749.00
2019-03-28T14:23:22.405Z,96747.00
2019-03-28T14:25:57.101Z,96745.00
2019-03-28T14:28:28.351Z,96752.00
2019-03-28T14:31:01.006Z,96736.00
2019-03-28T14:33:32.372Z,96741.00
2019-03-28T14:36:03.624Z,96743.00
2019-03-28T14:38:37.450Z,96732.00
2019-03-28T14:41:11.112Z,96727.00
2019-03-28T14:43:42.353Z,96746.00
2019-03-28T14:46:13.680Z,96739.00
2019-03-28T14:48:45.135Z,96732.00
2019-03-28T14:51:16.532Z,96729.00
2019-03-28T14:53:47.825Z,96727.00
2019-03-28T14:56:20.591Z,96728.00
2019-03-28T14:58:55.255Z,96735.00
2019-03-28T15:01:26.948Z,96741.00
2019-03-28T15:03:58.257Z,96731.00
2019-03-28T15:06:29.510Z,96735.00
2019-03-28T15:09:00.753Z,96727.00
2019-03-28T15:11:32.047Z,96740.00
2019-03-28T15:14:03.282Z,96729.00
2019-03-28T15:16:34.556Z,96732.00
2019-03-28T15:19:05.982Z,96741.00
2019-03-28T15:21:37.260Z,96752.00
2019-03-28T15:24:08.506Z,96746.00
2019-03-28T15:26:40.064Z,96743.00
2019-03-28T15:29:11.270Z,96730.00
2019-03-28T15:31:42.582Z,96744.00
2019-03-28T15:34:13.827Z,96744.00
2019-03-28T15:36:45.072Z,96751.00
2019-03-28T15:39:17.678Z,96748.00
2019-03-28T15:41:48.964Z,96747.00
2019-03-28T15:44:20.349Z,96750.00
2019-03-28T15:46:53.926Z,96753.00
2019-03-28T15:49:25.190Z,96749.00
2019-03-28T15:51:56.476Z,96746.00
2019-03-28T15:54:27.693Z,96732.00
2019-03-28T15:56:59.000Z,96735.00
2019-03-28T15:59:30.259Z,96739.00
2019-03-28T16:02:03.858Z,96746.00
2019-03-28T16:04:37.096Z,96741.00
2019-03-28T16:07:08.692Z,96739.00
2019-03-28T16:09:42.197Z,96743.00
2019-03-28T16:12:13.809Z,96729.00
2019-03-28T16:15:05.534Z,96740.00
2019-03-28T16:17:37.458Z,96739.00
2019-03-28T16:20:10.130Z,96741.00
2019-03-28T16:22:41.728Z,96744.00
2019-03-28T16:25:14.967Z,96749.00
2019-03-28T16:27:46.827Z,96748.00
2019-03-28T16:30:23.105Z,96746.00
2019-03-28T16:33:01.700Z,96751.00
2019-03-28T16:35:33.102Z,96747.00
2019-03-28T16:38:05.450Z,96746.00
2019-03-28T16:40:37.586Z,96747.00
2019-03-28T16:43:17.509Z,96758.00
2019-03-28T16:45:48.834Z,96756.00
2019-03-28T16:48:20.437Z,96760.00
2019-03-28T16:50:52.050Z,96760.00
2019-03-28T16:53:24.492Z,96767.00
2019-03-28T16:55:56.087Z,96763.00
2019-03-28T16:58:27.361Z,96764.00
2019-03-28T17:01:04.588Z,96760.00
2019-03-28T17:03:35.988Z,96767.00
2019-03-28T17:06:07.851Z,96770.00
2019-03-28T17:08:40.290Z,96759.00
2019-03-28T17:11:12.288Z,96771.00
2019-03-28T17:13:46.348Z,96766.00
2019-03-28T17:16:17.045Z,96769.00
2019-03-28T17:18:51.381Z,96763.00
2019-03-28T17:21:25.153Z,96771.00
2019-03-28T17:23:56.428Z,96766.00
2019-03-28T17:26:27.728Z,96766.00
2019-03-28T17:28:59.172Z,96773.00
2019-03-28T17:31:30.443Z,96765.00
2019-03-28T17:34:01.759Z,96773.00
2019-03-28T17:36:39.571Z,96780.00
2019-03-28T17:39:10.936Z,96779.00
2019-03-28T17:41:42.247Z,96776.00
2019-03-28T17:44:14.609Z,96782.00
2019-03-28T17:46:46.309Z,96785.00
2019-03-28T17:49:17.676Z,96788.00
2019-03-28T17:51:49.055Z,96792.00
2019-03-28T17:54:20.355Z,96783.00
2019-03-28T17:56:52.223Z,96791.00
2019-03-28T17:59:24.249Z,96792.00
2019-03-28T18:01:55.597Z,96791.00
2019-03-28T18:04:28.682Z,96805.00
2019-03-28T18:07:01.428Z,96795.00
2019-03-28T18:09:32.999Z,96801.00
2019-03-28T18:12:05.276Z,96797.00
2019-03-28T18:14:40.261Z,96808.00
2019-03-28T18:17:11.596Z,96812.00
2019-03-28T18:19:43.757Z,96817.00
2019-03-28T18:22:15.106Z,96816.00
2019-03-28T18:24:51.199Z,96824.00
2019-03-28T18:27:23.598Z,96816.00
2019-03-28T18:29:55.258Z,96817.00
2019-03-28T18:32:26.696Z,96812.00
2019-03-28T18:35:05.129Z,96812.00
2019-03-28T18:37:33.541Z,96829.00
2019-03-28T18:40:07.762Z,96818.00
2019-03-28T18:42:39.391Z,96820.00
2019-03-28T18:45:13.865Z,96825.00
2019-03-28T18:47:46.557Z,96828.00
2019-03-28T18:50:18.671Z,96828.00
2019-03-28T18:52:51.126Z,96830.00
2019-03-28T18:55:58.275Z,96824.00
2019-03-28T18:58:36.472Z,96830.00
2019-03-28T19:01:08.271Z,96833.00
2019-03-28T19:03:41.625Z,96829.00
2019-03-28T19:06:15.220Z,96830.00
2019-03-28T19:08:47.497Z,96825.00
2019-03-28T19:11:26.750Z,96830.00
2019-03-28T19:14:26.959Z,96834.00
2019-03-28T19:17:00.075Z,96823.00
2019-03-28T19:19:39.415Z,96832.00
2019-03-28T19:22:06.699Z,96824.00
2019-03-28T19:24:38.418Z,96828.00
2019-03-28T19:27:18.849Z,96832.00
2019-03-28T19:29:52.276Z,96833.00
2019-03-28T19:32:25.379Z,96834.00
2019-03-28T19:34:58.826Z,96842.00
2019-03-28T19:37:37.358Z,96835.00
2019-03-28T19:40:10.040Z,96837.00
2019-03-28T19:42:42.238Z,96846.00
2019-03-28T19:45:17.186Z,96840.00
2019-03-28T19:47:51.090Z,96833.00
2019-03-28T19:50:31.629Z,96847.00
2019-03-28T19:53:03.810Z,96836.00
2019-03-28T19:55:40.117Z,96838.00
2019-03-28T19:58:13.809Z,96842.00
2019-03-28T20:00:45.645Z,96843.00
2019-03-28T20:03:17.575Z,96839.00
2019-03-28T20:05:50.227Z,96832.00
2019-03-28T20:08:21.780Z,96846.00
2019-03-28T20:10:54.799Z,96842.00
2019-03-28T20:13:30.623Z,96848.00
2019-03-28T20:16:12.057Z,96850.00
2019-03-28T20:18:48.479Z,96841.00
2019-03-28T20:21:22.184Z,96855.00
2019-03-28T20:23:56.850Z,96858.00
2019-03-28T20:26:34.901Z,96853.00
2019-03-28T20:29:17.293Z,96861.00
2019-03-28T20:31:53.684Z,96868.00
2019-03-28T20:34:58.812Z,96858.00
2019-03-28T20:37:55.479Z,96860.00
2019-03-28T20:40:43.299Z,96865.00
2019-03-28T20:43:50.330Z,96879.00
2019-03-28T20:46:23.712Z,96872.00
2019-03-28T20:48:55.760Z,96882.00
2019-03-28T20:51:27.201Z,96873.00
2019-03-28T20:53:59.024Z,96878.00
2019-03-28T20:56:39.159Z,96880.00
2019-03-28T20:59:12.988Z,96881.00
2019-03-28T21:01:46.266Z,96883.00
2019-03-28T21:04:30.606Z,96877.00
2019-03-28T21:06:58.179Z,96885.00
2019-03-28T21:09:31.379Z,96893.00
2019-03-28T21:12:04.401Z,96882.00
2019-03-28T21:14:37.641Z,96886.00
2019-03-28T21:17:13.285Z,96876.00
2019-03-28T21:19:50.171Z,96880.00
2019-03-28T21:22:21.988Z,96879.00
2019-03-28T21:24:56.196Z,96875.00
2019-03-28T21:27:30.124Z,96875.00
2019-03-28T21:30:03.174Z,96878.00
2019-03-28T21:32:37.737Z,96875.00
2019-03-28T21:35:15.188Z,96876.00
2019-03-28T21:37:49.238Z,96883.00
2019-03-28T21:40:33.145Z,96870.00
2019-03-28T21:43:09.638Z,96874.00
2019-03-28T21:45:45.631Z,96874.00
2019-03-28T21:48:41.590Z,96873.00
2019-03-28T21:51:14.359Z,96865.00
2019-03-28T21:53:52.545Z,96862.00
2019-03-28T21:56:28.838Z,96862.00
2019-03-28T21:59:00.580Z,96868.00
2019-03-28T22:01:37.239Z,96867.00
2019-03-28T22:04:09.272Z,96863.00
2019-03-28T22:06:43.159Z,96856.00
2019-03-28T22:09:13.763Z,96857.00
2019-03-28T22:11:45.077Z,96854.00
2019-03-28T22:14:20.956Z,96860.00
2019-03-28T22:16:54.005Z,96852.00
2019-03-28T22:19:26.081Z,96848.00
2019-03-28T22:21:57.531Z,96843.00
2019-03-28T22:24:28.799Z,96842.00
2019-03-28T22:27:01.863Z,96841.00
2019-03-28T22:29:33.241Z,96836.00
2019-03-28T22:32:04.485Z,96820.00
2019-03-28T22:34:35.787Z,96824.00
2019-03-28T22:37:09.478Z,96822.00
2019-03-28T22:39:40.859Z,96823.00
2019-03-28T22:42:12.113Z,96832.00
2019-03-28T22:44:43.359Z,96816.00
2019-03-28T22:47:15.048Z,96820.00
2019-03-28T22:49:46.499Z,96823.00
2019-03-28T22:52:17.836Z,96824.00
2019-03-28T22:54:49.338Z,96821.00
2019-03-28T22:57:20.631Z,96818.00
2019-03-28T22:59:52.242Z,96821.00
2019-03-28T23:02:24.281Z,96821.00
2019-03-28T23:04:55.682Z,96817.00
2019-03-28T23:07:27.114Z,96814.00
2019-03-28T23:09:58.577Z,96814.00
2019-03-28T23:12:31.965Z,96807.00
2019-03-28T23:15:03.219Z,96807.00
2019-03-28T23:17:34.477Z,96803.00
2019-03-28T23:20:07.262Z,96806.00
2019-03-28T23:22:38.681Z,96816.00
2019-03-28T23:25:10.945Z,96810.00
2019-03-28T23:27:42.529Z,96811.00
2019-03-28T23:30:14.606Z,96798.00
2019-03-28T23:32:46.174Z,96808.00
2019-03-28T23:35:17.514Z,96798.00
2019-03-28T23:37:49.875Z,96808.00
2019-03-28T23:40:22.337Z,96810.00
2019-03-28T23:42:53.546Z,96808.00
2019-03-28T23:45:26.156Z,96799.00
2019-03-28T23:47:57.644Z,96799.00
2019-03-28T23:50:28.916Z,96789.00
2019-03-28T23:53:00.148Z,96792.00
2019-03-28T23:55:31.468Z,96782.00
2019-03-28T23:58:04.479Z,96790.00
